sensor_id;sensor_type;location;lat;lon;timestamp;P1;durP1;ratioP1;P2;durP2;ratioP2
57615;SDS011;43816;52.054;-9.494;2023-12-07T00:01:48;14.65;;;13.63;;
57615;SDS011;43816;52.054;-9.494;2023-12-07T00:01:58;13.00;;;12.03;;
57615;SDS011;43816;52.054;-9.494;2023-12-07T00:02:08;11.30;;;10.40;;
57615;SDS011;43816;52.054;-9.494;2023-12-07T00:02:18;11.63;;;10.63;;
57615;SDS011;43816;52.054;-9.494;2023-12-07T00:02:29;12.90;;;11.80;;
57615;SDS011;43816;52.054;-9.494;2023-12-07T00:02:42;13.50;;;12.30;;
57615;SDS011;43816;52.054;-9.494;2023-12-07T00:02:52;13.88;;;12.70;;
57615;SDS011;43816;52.054;-9.494;2023-12-07T00:03:02;13.93;;;12.83;;
57615;SDS011;43816;52.054;-9.494;2023-12-07T00:03:13;15.50;;;14.30;;
57615;SDS011;43816;52.054;-9.494;2023-12-07T00:03:23;15.32;;;14.18;;
57615;SDS011;43816;52.054;-9.494;2023-12-07T00:03:33;15.83;;;14.67;;
57615;SDS011;43816;52.054;-9.494;2023-12-07T00:03:44;14.87;;;13.77;;
57615;SDS011;43816;52.054;-9.494;2023-12-07T00:03:54;15.00;;;13.90;;
57615;SDS011;43816;52.054;-9.494;2023-12-07T00:04:06;14.53;;;13.43;;
57615;SDS011;43816;52.054;-9.494;2023-12-07T00:04:17;13.82;;;12.73;;
57615;SDS011;43816;52.054;-9.494;2023-12-07T00:04:27;12.93;;;11.93;;
57615;SDS011;43816;52.054;-9.494;2023-12-07T00:04:40;13.65;;;12.65;;
57615;SDS011;43816;52.054;-9.494;2023-12-07T00:04:50;13.37;;;12.37;;
57615;SDS011;43816;52.054;-9.494;2023-12-07T00:05:00;13.43;;;12.43;;
57615;SDS011;43816;52.054;-9.494;2023-12-07T00:05:11;13.00;;;11.98;;
57615;SDS011;43816;52.054;-9.494;2023-12-07T00:05:21;13.60;;;12.50;;
57615;SDS011;43816;52.054;-9.494;2023-12-07T00:05:34;14.37;;;13.27;;
57615;SDS011;43816;52.054;-9.494;2023-12-07T00:05:45;14.45;;;13.38;;
57615;SDS011;43816;52.054;-9.494;2023-12-07T00:05:55;13.70;;;12.70;;
57615;SDS011;43816;52.054;-9.494;2023-12-07T00:06:05;13.53;;;12.43;;
57615;SDS011;43816;52.054;-9.494;2023-12-07T00:06:16;13.10;;;12.00;;
57615;SDS011;43816;52.054;-9.494;2023-12-07T00:06:26;12.43;;;11.43;;
57615;SDS011;43816;52.054;-9.494;2023-12-07T00:06:39;11.32;;;10.43;;
57615;SDS011;43816;52.054;-9.494;2023-12-07T00:06:49;10.97;;;10.07;;
57615;SDS011;43816;52.054;-9.494;2023-12-07T00:06:59;11.53;;;10.53;;
57615;SDS011;43816;52.054;-9.494;2023-12-07T00:07:13;12.10;;;11.00;;
57615;SDS011;43816;52.054;-9.494;2023-12-07T00:07:23;13.07;;;11.88;;
57615;SDS011;43816;52.054;-9.494;2023-12-07T00:07:36;13.03;;;11.83;;
57615;SDS011;43816;52.054;-9.494;2023-12-07T00:07:47;12.00;;;10.95;;
57615;SDS011;43816;52.054;-9.494;2023-12-07T00:07:57;11.07;;;10.07;;
57615;SDS011;43816;52.054;-9.494;2023-12-07T00:08:10;12.40;;;11.40;;
57615;SDS011;43816;52.054;-9.494;2023-12-07T00:08:21;14.02;;;12.93;;
57615;SDS011;43816;52.054;-9.494;2023-12-07T00:08:31;14.67;;;13.57;;
57615;SDS011;43816;52.054;-9.494;2023-12-07T00:08:41;14.45;;;13.35;;
57615;SDS011;43816;52.054;-9.494;2023-12-07T00:08:51;14.87;;;13.87;;
57615;SDS011;43816;52.054;-9.494;2023-12-07T00:09:04;15.35;;;14.35;;
57615;SDS011;43816;52.054;-9.494;2023-12-07T00:09:17;15.05;;;13.98;;
57615;SDS011;43816;52.054;-9.494;2023-12-07T00:09:27;14.68;;;13.57;;
57615;SDS011;43816;52.054;-9.494;2023-12-07T00:09:41;13.23;;;12.13;;
57615;SDS011;43816;52.054;-9.494;2023-12-07T00:09:57;11.87;;;10.87;;
57615;SDS011;43816;52.054;-9.494;2023-12-07T00:10:08;11.77;;;10.88;;
57615;SDS011;43816;52.054;-9.494;2023-12-07T00:10:18;11.53;;;10.63;;
57615;SDS011;43816;52.054;-9.494;2023-12-07T00:10:36;12.15;;;11.15;;
57615;SDS011;43816;52.054;-9.494;2023-12-07T00:10:49;12.57;;;11.57;;
57615;SDS011;43816;52.054;-9.494;2023-12-07T00:11:00;12.63;;;11.63;;
57615;SDS011;43816;52.054;-9.494;2023-12-07T00:11:16;12.10;;;11.20;;
57615;SDS011;43816;52.054;-9.494;2023-12-07T00:11:26;12.73;;;11.73;;
57615;SDS011;43816;52.054;-9.494;2023-12-07T00:11:37;13.32;;;12.30;;
57615;SDS011;43816;52.054;-9.494;2023-12-07T00:11:47;12.53;;;11.53;;
57615;SDS011;43816;52.054;-9.494;2023-12-07T00:11:57;11.83;;;10.83;;
57615;SDS011;43816;52.054;-9.494;2023-12-07T00:12:08;12.30;;;11.35;;
57615;SDS011;43816;52.054;-9.494;2023-12-07T00:12:30;13.40;;;12.40;;
57615;SDS011;43816;52.054;-9.494;2023-12-07T00:12:43;13.57;;;12.57;;
57615;SDS011;43816;52.054;-9.494;2023-12-07T00:12:54;12.70;;;11.60;;
57615;SDS011;43816;52.054;-9.494;2023-12-07T00:13:10;12.00;;;10.93;;
57615;SDS011;43816;52.054;-9.494;2023-12-07T00:13:23;12.20;;;11.20;;
57615;SDS011;43816;52.054;-9.494;2023-12-07T00:13:33;12.45;;;11.48;;
57615;SDS011;43816;52.054;-9.494;2023-12-07T00:13:47;13.03;;;12.03;;
57615;SDS011;43816;52.054;-9.494;2023-12-07T00:14:00;12.38;;;11.48;;
57615;SDS011;43816;52.054;-9.494;2023-12-07T00:14:16;13.60;;;12.68;;
57615;SDS011;43816;52.054;-9.494;2023-12-07T00:14:26;14.35;;;13.25;;
57615;SDS011;43816;52.054;-9.494;2023-12-07T00:14:37;13.70;;;12.60;;
57615;SDS011;43816;52.054;-9.494;2023-12-07T00:14:50;13.73;;;12.67;;
57615;SDS011;43816;52.054;-9.494;2023-12-07T00:15:03;13.25;;;12.25;;
57615;SDS011;43816;52.054;-9.494;2023-12-07T00:15:14;12.73;;;11.73;;
57615;SDS011;43816;52.054;-9.494;2023-12-07T00:15:27;11.60;;;10.60;;
57615;SDS011;43816;52.054;-9.494;2023-12-07T00:15:38;10.57;;;9.67;;
57615;SDS011;43816;52.054;-9.494;2023-12-07T00:15:48;11.20;;;10.30;;
57615;SDS011;43816;52.054;-9.494;2023-12-07T00:15:58;12.60;;;11.60;;
57615;SDS011;43816;52.054;-9.494;2023-12-07T00:16:09;12.47;;;11.37;;
57615;SDS011;43816;52.054;-9.494;2023-12-07T00:16:19;11.57;;;10.55;;
57615;SDS011;43816;52.054;-9.494;2023-12-07T00:16:33;11.20;;;10.20;;
57615;SDS011;43816;52.054;-9.494;2023-12-07T00:16:43;13.35;;;12.30;;
57615;SDS011;43816;52.054;-9.494;2023-12-07T00:16:53;13.97;;;12.87;;
57615;SDS011;43816;52.054;-9.494;2023-12-07T00:17:04;13.98;;;12.85;;
57615;SDS011;43816;52.054;-9.494;2023-12-07T00:17:14;11.93;;;10.93;;
57615;SDS011;43816;52.054;-9.494;2023-12-07T00:17:24;10.05;;;9.15;;
57615;SDS011;43816;52.054;-9.494;2023-12-07T00:17:35;11.53;;;10.63;;
57615;SDS011;43816;52.054;-9.494;2023-12-07T00:17:45;12.33;;;11.43;;
57615;SDS011;43816;52.054;-9.494;2023-12-07T00:17:55;13.43;;;12.43;;
57615;SDS011;43816;52.054;-9.494;2023-12-07T00:18:06;12.50;;;11.50;;
57615;SDS011;43816;52.054;-9.494;2023-12-07T00:18:16;13.13;;;12.07;;
57615;SDS011;43816;52.054;-9.494;2023-12-07T00:18:26;12.90;;;11.90;;
57615;SDS011;43816;52.054;-9.494;2023-12-07T00:18:39;12.33;;;11.33;;
57615;SDS011;43816;52.054;-9.494;2023-12-07T00:18:49;11.85;;;10.85;;
57615;SDS011;43816;52.054;-9.494;2023-12-07T00:19:00;12.07;;;11.07;;
57615;SDS011;43816;52.054;-9.494;2023-12-07T00:19:13;12.40;;;11.40;;
57615;SDS011;43816;52.054;-9.494;2023-12-07T00:19:23;12.65;;;11.65;;
57615;SDS011;43816;52.054;-9.494;2023-12-07T00:19:33;11.73;;;10.73;;
57615;SDS011;43816;52.054;-9.494;2023-12-07T00:19:46;11.77;;;10.77;;
57615;SDS011;43816;52.054;-9.494;2023-12-07T00:19:57;12.30;;;11.30;;
57615;SDS011;43816;52.054;-9.494;2023-12-07T00:20:07;12.83;;;11.90;;
57615;SDS011;43816;52.054;-9.494;2023-12-07T00:20:18;13.10;;;12.10;;
57615;SDS011;43816;52.054;-9.494;2023-12-07T00:20:28;13.15;;;12.07;;
57615;SDS011;43816;52.054;-9.494;2023-12-07T00:20:39;14.25;;;13.10;;
57615;SDS011;43816;52.054;-9.494;2023-12-07T00:20:49;13.47;;;12.37;;
57615;SDS011;43816;52.054;-9.494;2023-12-07T00:21:00;12.87;;;11.77;;
57615;SDS011;43816;52.054;-9.494;2023-12-07T00:21:11;12.25;;;11.25;;
57615;SDS011;43816;52.054;-9.494;2023-12-07T00:21:21;12.17;;;11.17;;
57615;SDS011;43816;52.054;-9.494;2023-12-07T00:21:31;12.47;;;11.47;;
57615;SDS011;43816;52.054;-9.494;2023-12-07T00:21:42;12.27;;;11.27;;
57615;SDS011;43816;52.054;-9.494;2023-12-07T00:21:55;12.57;;;11.47;;
57615;SDS011;43816;52.054;-9.494;2023-12-07T00:22:05;11.88;;;10.88;;
57615;SDS011;43816;52.054;-9.494;2023-12-07T00:22:19;10.95;;;10.05;;
57615;SDS011;43816;52.054;-9.494;2023-12-07T00:22:30;11.05;;;10.13;;
57615;SDS011;43816;52.054;-9.494;2023-12-07T00:22:40;11.53;;;10.63;;
57615;SDS011;43816;52.054;-9.494;2023-12-07T00:22:50;11.97;;;11.07;;
57615;SDS011;43816;52.054;-9.494;2023-12-07T00:23:01;12.02;;;11.13;;
57615;SDS011;43816;52.054;-9.494;2023-12-07T00:23:11;11.13;;;10.23;;
57615;SDS011;43816;52.054;-9.494;2023-12-07T00:23:24;10.48;;;9.57;;
57615;SDS011;43816;52.054;-9.494;2023-12-07T00:23:35;12.10;;;11.07;;
57615;SDS011;43816;52.054;-9.494;2023-12-07T00:23:46;14.27;;;13.18;;
57615;SDS011;43816;52.054;-9.494;2023-12-07T00:23:56;15.37;;;14.20;;
57615;SDS011;43816;52.054;-9.494;2023-12-07T00:24:09;15.33;;;14.17;;
57615;SDS011;43816;52.054;-9.494;2023-12-07T00:24:19;14.65;;;13.45;;
57615;SDS011;43816;52.054;-9.494;2023-12-07T00:24:29;14.63;;;13.50;;
57615;SDS011;43816;52.054;-9.494;2023-12-07T00:24:40;13.30;;;12.30;;
57615;SDS011;43816;52.054;-9.494;2023-12-07T00:24:50;13.55;;;12.52;;
57615;SDS011;43816;52.054;-9.494;2023-12-07T00:25:03;14.10;;;13.07;;
57615;SDS011;43816;52.054;-9.494;2023-12-07T00:25:14;13.35;;;12.35;;
57615;SDS011;43816;52.054;-9.494;2023-12-07T00:25:25;13.67;;;12.63;;
57615;SDS011;43816;52.054;-9.494;2023-12-07T00:25:35;13.88;;;12.77;;
57615;SDS011;43816;52.054;-9.494;2023-12-07T00:25:51;12.82;;;11.73;;
57615;SDS011;43816;52.054;-9.494;2023-12-07T00:26:02;10.60;;;9.63;;
57615;SDS011;43816;52.054;-9.494;2023-12-07T00:26:13;10.77;;;9.77;;
57615;SDS011;43816;52.054;-9.494;2023-12-07T00:26:23;11.90;;;10.90;;
57615;SDS011;43816;52.054;-9.494;2023-12-07T00:26:34;12.13;;;11.13;;
57615;SDS011;43816;52.054;-9.494;2023-12-07T00:26:44;12.45;;;11.45;;
57615;SDS011;43816;52.054;-9.494;2023-12-07T00:26:54;12.53;;;11.53;;
57615;SDS011;43816;52.054;-9.494;2023-12-07T00:27:05;11.93;;;10.93;;
57615;SDS011;43816;52.054;-9.494;2023-12-07T00:27:20;11.77;;;10.77;;
57615;SDS011;43816;52.054;-9.494;2023-12-07T00:27:31;11.13;;;10.15;;
57615;SDS011;43816;52.054;-9.494;2023-12-07T00:27:41;11.50;;;10.50;;
57615;SDS011;43816;52.054;-9.494;2023-12-07T00:27:54;11.63;;;10.63;;
57615;SDS011;43816;52.054;-9.494;2023-12-07T00:28:04;13.38;;;12.27;;
57615;SDS011;43816;52.054;-9.494;2023-12-07T00:28:15;13.38;;;12.18;;
57615;SDS011;43816;52.054;-9.494;2023-12-07T00:28:31;12.27;;;11.17;;
57615;SDS011;43816;52.054;-9.494;2023-12-07T00:28:44;11.02;;;10.02;;
57615;SDS011;43816;52.054;-9.494;2023-12-07T00:28:55;13.07;;;12.07;;
57615;SDS011;43816;52.054;-9.494;2023-12-07T00:29:33;13.80;;;12.73;;
57615;SDS011;43816;52.054;-9.494;2023-12-07T00:30:19;13.20;;;12.10;;
57615;SDS011;43816;52.054;-9.494;2023-12-07T00:30:30;12.63;;;11.63;;
57615;SDS011;43816;52.054;-9.494;2023-12-07T00:30:40;13.00;;;12.00;;
57615;SDS011;43816;52.054;-9.494;2023-12-07T00:30:56;11.70;;;10.57;;
57615;SDS011;43816;52.054;-9.494;2023-12-07T00:31:07;13.02;;;11.82;;
57615;SDS011;43816;52.054;-9.494;2023-12-07T00:31:17;12.37;;;11.33;;
57615;SDS011;43816;52.054;-9.494;2023-12-07T00:31:27;13.13;;;11.93;;
57615;SDS011;43816;52.054;-9.494;2023-12-07T00:31:37;13.00;;;11.70;;
57615;SDS011;43816;52.054;-9.494;2023-12-07T00:31:50;13.32;;;12.02;;
57615;SDS011;43816;52.054;-9.494;2023-12-07T00:32:04;13.33;;;12.17;;
57615;SDS011;43816;52.054;-9.494;2023-12-07T00:32:29;13.02;;;11.93;;
57615;SDS011;43816;52.054;-9.494;2023-12-07T00:32:45;11.80;;;10.73;;
57615;SDS011;43816;52.054;-9.494;2023-12-07T00:32:59;11.05;;;10.02;;
57615;SDS011;43816;52.054;-9.494;2023-12-07T00:33:18;11.53;;;10.30;;
57615;SDS011;43816;52.054;-9.494;2023-12-07T00:33:31;12.77;;;10.88;;
57615;SDS011;43816;52.054;-9.494;2023-12-07T00:33:45;13.75;;;12.45;;
57615;SDS011;43816;52.054;-9.494;2023-12-07T00:34:04;13.88;;;12.77;;
57615;SDS011;43816;52.054;-9.494;2023-12-07T00:34:14;13.07;;;11.95;;
57615;SDS011;43816;52.054;-9.494;2023-12-07T00:34:25;12.95;;;11.65;;
57615;SDS011;43816;52.054;-9.494;2023-12-07T00:34:35;13.53;;;12.13;;
57615;SDS011;43816;52.054;-9.494;2023-12-07T00:34:48;13.50;;;11.48;;
57615;SDS011;43816;52.054;-9.494;2023-12-07T00:34:59;12.73;;;11.40;;
57615;SDS011;43816;52.054;-9.494;2023-12-07T00:35:09;12.00;;;10.80;;
57615;SDS011;43816;52.054;-9.494;2023-12-07T00:35:20;11.70;;;10.48;;
57615;SDS011;43816;52.054;-9.494;2023-12-07T00:35:30;12.50;;;10.50;;
57615;SDS011;43816;52.054;-9.494;2023-12-07T00:35:41;12.48;;;11.10;;
57615;SDS011;43816;52.054;-9.494;2023-12-07T00:35:54;12.53;;;11.33;;
57615;SDS011;43816;52.054;-9.494;2023-12-07T00:36:05;12.40;;;11.30;;
57615;SDS011;43816;52.054;-9.494;2023-12-07T00:36:18;13.07;;;11.87;;
57615;SDS011;43816;52.054;-9.494;2023-12-07T00:36:31;13.82;;;12.63;;
57615;SDS011;43816;52.054;-9.494;2023-12-07T00:36:41;13.27;;;12.07;;
57615;SDS011;43816;52.054;-9.494;2023-12-07T00:36:54;13.73;;;12.40;;
57615;SDS011;43816;52.054;-9.494;2023-12-07T00:37:05;14.30;;;12.83;;
57615;SDS011;43816;52.054;-9.494;2023-12-07T00:37:15;15.20;;;13.77;;
57615;SDS011;43816;52.054;-9.494;2023-12-07T00:37:25;13.90;;;12.65;;
57615;SDS011;43816;52.054;-9.494;2023-12-07T00:37:36;13.23;;;12.00;;
57615;SDS011;43816;52.054;-9.494;2023-12-07T00:37:46;12.63;;;11.43;;
57615;SDS011;43816;52.054;-9.494;2023-12-07T00:37:57;13.67;;;12.33;;
57615;SDS011;43816;52.054;-9.494;2023-12-07T00:38:07;13.73;;;12.47;;
57615;SDS011;43816;52.054;-9.494;2023-12-07T00:38:17;13.27;;;11.98;;
57615;SDS011;43816;52.054;-9.494;2023-12-07T00:38:27;12.63;;;11.30;;
57615;SDS011;43816;52.054;-9.494;2023-12-07T00:38:38;13.27;;;11.87;;
57615;SDS011;43816;52.054;-9.494;2023-12-07T00:38:48;15.20;;;13.60;;
57615;SDS011;43816;52.054;-9.494;2023-12-07T00:38:58;14.75;;;13.35;;
57615;SDS011;43816;52.054;-9.494;2023-12-07T00:39:08;13.83;;;12.53;;
57615;SDS011;43816;52.054;-9.494;2023-12-07T00:39:19;13.00;;;11.83;;
57615;SDS011;43816;52.054;-9.494;2023-12-07T00:39:29;13.57;;;12.30;;
57615;SDS011;43816;52.054;-9.494;2023-12-07T00:39:40;13.43;;;12.10;;
57615;SDS011;43816;52.054;-9.494;2023-12-07T00:39:51;12.45;;;11.15;;
57615;SDS011;43816;52.054;-9.494;2023-12-07T00:40:01;12.73;;;10.87;;
57615;SDS011;43816;52.054;-9.494;2023-12-07T00:40:12;12.43;;;10.18;;
57615;SDS011;43816;52.054;-9.494;2023-12-07T00:40:23;12.13;;;10.33;;
57615;SDS011;43816;52.054;-9.494;2023-12-07T00:40:34;11.35;;;10.15;;
57615;SDS011;43816;52.054;-9.494;2023-12-07T00:40:44;10.90;;;9.80;;
57615;SDS011;43816;52.054;-9.494;2023-12-07T00:40:54;11.47;;;10.23;;
57615;SDS011;43816;52.054;-9.494;2023-12-07T00:41:05;11.80;;;10.40;;
57615;SDS011;43816;52.054;-9.494;2023-12-07T00:41:15;13.17;;;11.87;;
57615;SDS011;43816;52.054;-9.494;2023-12-07T00:41:25;13.27;;;12.00;;
57615;SDS011;43816;52.054;-9.494;2023-12-07T00:41:36;12.93;;;11.57;;
57615;SDS011;43816;52.054;-9.494;2023-12-07T00:41:46;12.57;;;10.50;;
57615;SDS011;43816;52.054;-9.494;2023-12-07T00:41:56;12.80;;;10.77;;
57615;SDS011;43816;52.054;-9.494;2023-12-07T00:42:07;12.35;;;11.07;;
57615;SDS011;43816;52.054;-9.494;2023-12-07T00:42:17;13.77;;;12.37;;
57615;SDS011;43816;52.054;-9.494;2023-12-07T00:42:27;13.07;;;11.70;;
57615;SDS011;43816;52.054;-9.494;2023-12-07T00:42:37;13.02;;;11.73;;
57615;SDS011;43816;52.054;-9.494;2023-12-07T00:42:48;12.33;;;11.03;;
57615;SDS011;43816;52.054;-9.494;2023-12-07T00:42:58;12.63;;;11.20;;
57615;SDS011;43816;52.054;-9.494;2023-12-07T00:43:08;13.50;;;12.10;;
57615;SDS011;43816;52.054;-9.494;2023-12-07T00:43:18;14.00;;;12.60;;
57615;SDS011;43816;52.054;-9.494;2023-12-07T00:43:36;13.60;;;12.20;;
57615;SDS011;43816;52.054;-9.494;2023-12-07T00:43:47;13.18;;;11.88;;
57615;SDS011;43816;52.054;-9.494;2023-12-07T00:43:57;13.40;;;12.20;;
57615;SDS011;43816;52.054;-9.494;2023-12-07T00:44:07;13.98;;;12.57;;
57615;SDS011;43816;52.054;-9.494;2023-12-07T00:44:17;12.90;;;11.37;;
57615;SDS011;43816;52.054;-9.494;2023-12-07T00:44:28;13.87;;;10.80;;
57615;SDS011;43816;52.054;-9.494;2023-12-07T00:44:41;13.20;;;10.13;;
57615;SDS011;43816;52.054;-9.494;2023-12-07T00:44:51;12.90;;;10.20;;
57615;SDS011;43816;52.054;-9.494;2023-12-07T00:45:02;15.10;;;11.13;;
57615;SDS011;43816;52.054;-9.494;2023-12-07T00:45:12;15.98;;;12.00;;
57615;SDS011;43816;52.054;-9.494;2023-12-07T00:45:23;16.27;;;11.70;;
57615;SDS011;43816;52.054;-9.494;2023-12-07T00:45:33;13.15;;;11.70;;
57615;SDS011;43816;52.054;-9.494;2023-12-07T00:45:43;14.00;;;12.00;;
57615;SDS011;43816;52.054;-9.494;2023-12-07T00:45:53;14.07;;;12.63;;
57615;SDS011;43816;52.054;-9.494;2023-12-07T00:46:06;13.15;;;11.80;;
57615;SDS011;43816;52.054;-9.494;2023-12-07T00:46:19;11.45;;;10.32;;
57615;SDS011;43816;52.054;-9.494;2023-12-07T00:46:30;11.88;;;10.77;;
57615;SDS011;43816;52.054;-9.494;2023-12-07T00:46:43;12.20;;;11.10;;
57615;SDS011;43816;52.054;-9.494;2023-12-07T00:46:53;13.23;;;11.93;;
57615;SDS011;43816;52.054;-9.494;2023-12-07T00:47:03;13.13;;;11.57;;
57615;SDS011;43816;52.054;-9.494;2023-12-07T00:47:14;14.07;;;11.35;;
57615;SDS011;43816;52.054;-9.494;2023-12-07T00:47:24;13.03;;;9.93;;
57615;SDS011;43816;52.054;-9.494;2023-12-07T00:47:34;12.77;;;8.80;;
57615;SDS011;43816;52.054;-9.494;2023-12-07T00:47:47;12.30;;;8.93;;
57615;SDS011;43816;52.054;-9.494;2023-12-07T00:48:01;12.57;;;9.98;;
57615;SDS011;43816;52.054;-9.494;2023-12-07T00:48:11;13.32;;;10.02;;
57615;SDS011;43816;52.054;-9.494;2023-12-07T00:48:21;12.43;;;9.60;;
57615;SDS011;43816;52.054;-9.494;2023-12-07T00:48:32;12.10;;;9.90;;
57615;SDS011;43816;52.054;-9.494;2023-12-07T00:48:48;12.23;;;10.30;;
57615;SDS011;43816;52.054;-9.494;2023-12-07T00:48:58;13.85;;;11.15;;
57615;SDS011;43816;52.054;-9.494;2023-12-07T00:49:08;14.57;;;11.63;;
57615;SDS011;43816;52.054;-9.494;2023-12-07T00:49:19;13.60;;;11.40;;
57615;SDS011;43816;52.054;-9.494;2023-12-07T00:49:29;14.27;;;11.13;;
57615;SDS011;43816;52.054;-9.494;2023-12-07T00:49:39;14.15;;;11.73;;
57615;SDS011;43816;52.054;-9.494;2023-12-07T00:49:49;14.00;;;11.93;;
57615;SDS011;43816;52.054;-9.494;2023-12-07T00:50:03;13.47;;;11.80;;
57615;SDS011;43816;52.054;-9.494;2023-12-07T00:50:13;12.88;;;11.40;;
57615;SDS011;43816;52.054;-9.494;2023-12-07T00:50:24;13.27;;;10.83;;
57615;SDS011;43816;52.054;-9.494;2023-12-07T00:50:34;11.77;;;10.38;;
57615;SDS011;43816;52.054;-9.494;2023-12-07T00:50:45;11.67;;;10.40;;
57615;SDS011;43816;52.054;-9.494;2023-12-07T00:50:55;11.57;;;10.37;;
57615;SDS011;43816;52.054;-9.494;2023-12-07T00:51:05;13.25;;;11.85;;
57615;SDS011;43816;52.054;-9.494;2023-12-07T00:51:15;13.70;;;12.27;;
57615;SDS011;43816;52.054;-9.494;2023-12-07T00:51:26;13.93;;;12.33;;
57615;SDS011;43816;52.054;-9.494;2023-12-07T00:51:36;13.23;;;11.30;;
57615;SDS011;43816;52.054;-9.494;2023-12-07T00:51:49;12.30;;;10.57;;
57615;SDS011;43816;52.054;-9.494;2023-12-07T00:52:00;12.38;;;10.25;;
57615;SDS011;43816;52.054;-9.494;2023-12-07T00:52:10;12.80;;;9.88;;
57615;SDS011;43816;52.054;-9.494;2023-12-07T00:52:20;12.80;;;9.80;;
57615;SDS011;43816;52.054;-9.494;2023-12-07T00:52:31;12.13;;;9.33;;
57615;SDS011;43816;52.054;-9.494;2023-12-07T00:52:41;11.88;;;10.40;;
57615;SDS011;43816;52.054;-9.494;2023-12-07T00:52:51;11.87;;;10.13;;
57615;SDS011;43816;52.054;-9.494;2023-12-07T00:53:02;12.53;;;11.20;;
57615;SDS011;43816;52.054;-9.494;2023-12-07T00:53:12;13.10;;;10.20;;
57615;SDS011;43816;52.054;-9.494;2023-12-07T00:53:25;14.13;;;10.97;;
57615;SDS011;43816;52.054;-9.494;2023-12-07T00:53:38;14.48;;;10.75;;
57615;SDS011;43816;52.054;-9.494;2023-12-07T00:53:51;13.13;;;11.48;;
57615;SDS011;43816;52.054;-9.494;2023-12-07T00:54:01;12.90;;;11.52;;
57615;SDS011;43816;52.054;-9.494;2023-12-07T00:54:12;13.35;;;11.93;;
57615;SDS011;43816;52.054;-9.494;2023-12-07T00:54:22;13.77;;;12.30;;
57615;SDS011;43816;52.054;-9.494;2023-12-07T00:54:32;13.87;;;11.17;;
57615;SDS011;43816;52.054;-9.494;2023-12-07T00:54:45;13.15;;;10.25;;
57615;SDS011;43816;52.054;-9.494;2023-12-07T00:54:56;12.20;;;9.42;;
57615;SDS011;43816;52.054;-9.494;2023-12-07T00:55:10;11.13;;;9.43;;
57615;SDS011;43816;52.054;-9.494;2023-12-07T00:55:20;11.73;;;9.70;;
57615;SDS011;43816;52.054;-9.494;2023-12-07T00:55:30;13.35;;;10.00;;
57615;SDS011;43816;52.054;-9.494;2023-12-07T00:55:40;13.67;;;10.33;;
57615;SDS011;43816;52.054;-9.494;2023-12-07T00:55:51;14.50;;;10.93;;
57615;SDS011;43816;52.054;-9.494;2023-12-07T00:56:02;12.90;;;10.73;;
57615;SDS011;43816;52.054;-9.494;2023-12-07T00:56:13;13.15;;;10.27;;
57615;SDS011;43816;52.054;-9.494;2023-12-07T00:56:23;13.68;;;10.27;;
57615;SDS011;43816;52.054;-9.494;2023-12-07T00:56:37;14.53;;;10.03;;
57615;SDS011;43816;52.054;-9.494;2023-12-07T00:56:50;15.23;;;9.95;;
57615;SDS011;43816;52.054;-9.494;2023-12-07T00:57:01;14.80;;;9.98;;
57615;SDS011;43816;52.054;-9.494;2023-12-07T00:57:14;14.27;;;10.27;;
57615;SDS011;43816;52.054;-9.494;2023-12-07T00:57:24;13.65;;;9.75;;
57615;SDS011;43816;52.054;-9.494;2023-12-07T00:57:34;12.90;;;10.33;;
57615;SDS011;43816;52.054;-9.494;2023-12-07T00:57:50;12.27;;;10.03;;
57615;SDS011;43816;52.054;-9.494;2023-12-07T00:58:00;12.98;;;9.10;;
57615;SDS011;43816;52.054;-9.494;2023-12-07T00:58:11;13.23;;;9.65;;
57615;SDS011;43816;52.054;-9.494;2023-12-07T00:58:21;13.67;;;10.57;;
57615;SDS011;43816;52.054;-9.494;2023-12-07T00:58:31;14.23;;;12.17;;
57615;SDS011;43816;52.054;-9.494;2023-12-07T00:58:42;14.30;;;11.90;;
57615;SDS011;43816;52.054;-9.494;2023-12-07T00:58:52;13.25;;;10.98;;
57615;SDS011;43816;52.054;-9.494;2023-12-07T00:59:02;11.73;;;9.23;;
57615;SDS011;43816;52.054;-9.494;2023-12-07T00:59:12;12.40;;;9.63;;
57615;SDS011;43816;52.054;-9.494;2023-12-07T00:59:23;12.73;;;10.52;;
57615;SDS011;43816;52.054;-9.494;2023-12-07T00:59:33;14.33;;;12.13;;
57615;SDS011;43816;52.054;-9.494;2023-12-07T00:59:44;13.30;;;11.35;;
57615;SDS011;43816;52.054;-9.494;2023-12-07T00:59:59;13.73;;;11.48;;
57615;SDS011;43816;52.054;-9.494;2023-12-07T01:00:10;13.88;;;10.90;;
57615;SDS011;43816;52.054;-9.494;2023-12-07T01:00:20;14.65;;;11.25;;
57615;SDS011;43816;52.054;-9.494;2023-12-07T01:00:34;13.87;;;10.80;;
57615;SDS011;43816;52.054;-9.494;2023-12-07T01:00:44;13.35;;;10.23;;
57615;SDS011;43816;52.054;-9.494;2023-12-07T01:00:54;13.63;;;9.77;;
57615;SDS011;43816;52.054;-9.494;2023-12-07T01:01:05;13.70;;;10.57;;
57615;SDS011;43816;52.054;-9.494;2023-12-07T01:01:15;13.93;;;11.33;;
57615;SDS011;43816;52.054;-9.494;2023-12-07T01:01:27;12.55;;;11.18;;
57615;SDS011;43816;52.054;-9.494;2023-12-07T01:01:38;12.55;;;11.27;;
57615;SDS011;43816;52.054;-9.494;2023-12-07T01:01:48;11.63;;;10.33;;
57615;SDS011;43816;52.054;-9.494;2023-12-07T01:01:58;13.07;;;10.50;;
57615;SDS011;43816;52.054;-9.494;2023-12-07T01:02:10;14.65;;;9.88;;
57615;SDS011;43816;52.054;-9.494;2023-12-07T01:02:20;15.77;;;10.37;;
57615;SDS011;43816;52.054;-9.494;2023-12-07T01:02:30;15.32;;;10.48;;
57615;SDS011;43816;52.054;-9.494;2023-12-07T01:02:40;14.47;;;11.13;;
57615;SDS011;43816;52.054;-9.494;2023-12-07T01:02:51;13.93;;;11.20;;
57615;SDS011;43816;52.054;-9.494;2023-12-07T01:03:01;13.35;;;10.88;;
57615;SDS011;43816;52.054;-9.494;2023-12-07T01:03:11;12.17;;;10.83;;
57615;SDS011;43816;52.054;-9.494;2023-12-07T01:03:22;12.20;;;10.87;;
57615;SDS011;43816;52.054;-9.494;2023-12-07T01:03:32;12.82;;;11.52;;
57615;SDS011;43816;52.054;-9.494;2023-12-07T01:03:42;13.77;;;11.43;;
57615;SDS011;43816;52.054;-9.494;2023-12-07T01:03:53;13.50;;;11.23;;
57615;SDS011;43816;52.054;-9.494;2023-12-07T01:04:06;14.25;;;10.73;;
57615;SDS011;43816;52.054;-9.494;2023-12-07T01:04:16;13.35;;;10.32;;
57615;SDS011;43816;52.054;-9.494;2023-12-07T01:04:27;13.37;;;10.03;;
57615;SDS011;43816;52.054;-9.494;2023-12-07T01:04:38;13.73;;;9.75;;
57615;SDS011;43816;52.054;-9.494;2023-12-07T01:04:49;13.40;;;9.63;;
57615;SDS011;43816;52.054;-9.494;2023-12-07T01:05:08;13.27;;;9.52;;
57615;SDS011;43816;52.054;-9.494;2023-12-07T01:05:18;13.18;;;10.10;;
57615;SDS011;43816;52.054;-9.494;2023-12-07T01:05:29;13.43;;;10.00;;
57615;SDS011;43816;52.054;-9.494;2023-12-07T01:05:39;12.90;;;9.90;;
57615;SDS011;43816;52.054;-9.494;2023-12-07T01:05:54;13.13;;;10.38;;
57615;SDS011;43816;52.054;-9.494;2023-12-07T01:06:08;12.93;;;10.50;;
57615;SDS011;43816;52.054;-9.494;2023-12-07T01:06:21;13.88;;;10.52;;
57615;SDS011;43816;52.054;-9.494;2023-12-07T01:06:31;13.88;;;10.68;;
57615;SDS011;43816;52.054;-9.494;2023-12-07T01:06:42;13.30;;;10.97;;
57615;SDS011;43816;52.054;-9.494;2023-12-07T01:06:52;12.97;;;10.90;;
57615;SDS011;43816;52.054;-9.494;2023-12-07T01:07:03;11.93;;;10.25;;
57615;SDS011;43816;52.054;-9.494;2023-12-07T01:07:13;13.03;;;11.07;;
57615;SDS011;43816;52.054;-9.494;2023-12-07T01:07:26;13.45;;;11.63;;
57615;SDS011;43816;52.054;-9.494;2023-12-07T01:07:36;15.20;;;12.35;;
57615;SDS011;43816;52.054;-9.494;2023-12-07T01:07:47;14.63;;;10.83;;
57615;SDS011;43816;52.054;-9.494;2023-12-07T01:07:57;12.67;;;9.97;;